Airfield :
LOGIN :

Register | Disclaimer

   EN    FR    IT 

 










Legend :    VFR   Marginal VFR   IFR   Intensive IFR   Very Intensive IFR
Visi :
Ceiling :
>= 8 km
>= 3000ft
5 to 8 km
1000 to 3000 ft
1500m to 5 km
500 to 1000 ft
800 to 1500m
200 to 500 ft
< 800m
< 200 ft
Symbols :   Thunderstorms  Fog  Heavy snow  Heavy precipitations  Wind > 20 kt
SIGMETs :     Misc.  Thunderstorms  Icing  Turbulence  Mountain Waves  Volcanic Ashes






- Airport Elevation : 286 ft
- IATA code : FFD


EGVA - RAF Fairford

CURRENT METAR :
  • 250356Z AUTO 26007KT 9999 -RA BKN007 OVC012 15/15 A3000 RMK AO2 RAE36DZB36E37RAB37E41RAB41E41RAB44 BKN V OVC SLP161 P0001 T01470145 VISNO RWY09 $

EXPIRED METARs :
  • 250344Z AUTO 26007KT 9999 -RA OVC006 15/15 A3000 RMK AO2 RAE36DZB36E37RAB37E41RAB41E41RAB44 OVC V BKN SLP161 VISNO RWY09 $
  • 250341Z AUTO 25007KT 9999 OVC006 15/15 A3000 RMK AO2 RAE36DZB36E37RAB37E41RAB41 OVC V BKN SLP161 VISNO RWY09 $
  • 250316Z AUTO 25008KT 9999 -RA OVC006 15/14 A3001 RMK AO2 SLP164 VISNO RWY09 $
  • 250256Z AUTO 25008KT 9999 -RA OVC007 14/14 A3001 RMK AO2 DZE02DZB02E02DZB16E33RAB33 SLP164 P0001 60001 T01430141 57018 VISNO RWY09 $
  • 250216Z AUTO 24006KT 9999 -DZ OVC008 14/14 A3002 RMK AO2 DZE02DZB02E02DZB16 SLP168 VISNO RWY09 $
  • 250202Z AUTO 24006KT 9999 OVC009 14/14 A3002 RMK AO2 DZE02DZB02 SLP168 VISNO RWY09 $
  • 250156Z AUTO 24007KT 9999 -DZ OVC009 14/14 A3003 RMK AO2 DZE0059DZB0059E0059RAB34E45DZB45 OVC V BKN SLP171 P0000 T01390137 VISNO RWY09 $
  • 250144Z AUTO 24006KT 9999 -RA BKN009 BKN095 14/14 A3003 RMK AO2 DZE0059DZB0059E0059RAB34 SLP171 VISNO RWY09 $

TAF AMD TAF EGVA
Valid from the 24 at 15:00 until the 25 at 19:00 UTC


241535Z 2415/2519 29009KT 9999 FEW015 BKN020 QNH3011INS
TEMPO 2415/2417 9000 -RA BKN015
BECMG 2417/2418 24009KT 9999 BKN015 QNH3006INS
BECMG 2500/2501 27009KT 8000 -RA OVC008 QNH3000INS
BECMG 2509/2510 30010G15KT 9999 NSW SCT020 QNH2996INS TX20/2415Z TN13/2500Z LAST NO AMDS AFT 2415 NEXT 2506



MET'MAP, your aeronautical weather chart ! - Copyright ORBIFLY December 2007 - Disclaimer

ORBIFLY MET'MAP TEAM :

Programming & Development : Alexandra Zaïnal
Concept & original design : Baudouin d'Aumeries
Assistance for programming : Marc-Olivier Méhu
Technical & hardware support : Manuel Goepfert

Contact : metmap@orbifly.com




SOURCES & CREDITS :

   NOAA